Woodbury, North Dakota
Current Conditions -  °F | °C
As of 5:56 PM on Tuesday 25 Nov 2014 (Local Time) from KJMS Reporting Station
Light Snow Light Snow  
Wind Chill: 16°   Ceiling: 800
Heat Index: 27°   Visibility: 0.75mi
Dew Point: 25°   Wind: 13mph
Humidity: 92%   Direction: 100°E
Pressure: 29.81"   Gusts: NA
Location:  46.8494°N, 98.7424°W
Report Text: KJMS 252356Z AUTO 10011KT 3/4SM -SN BR VV008 M03/M04 A2981 RMK AO2 SLP115 P0002 60004 T10281039 10006 21028 53007
Loading
Personal Weather Stations






























Interactive Weather Map New forecast layout! Learn more

10-Day Weather Forecast

Advertisements
Track Severe Weather on mobile